Topmost, Kentucky
Current Conditions -  °F | °C
As of 9:55 AM on Wednesday 26 Nov 2014 (Local Time) from KPBX Reporting Station
Overcast Overcast  
Wind Chill: 33°   Ceiling: 1500
Heat Index: 37°   Visibility: 10mi
Dew Point: 31°   Wind: 5mph
Humidity: 80%   Direction: 290°WNW
Pressure: 30.06"   Gusts: NA
Location:  37.36°N, 82.79°W
Report Text: KPBX 261455Z AUTO 29004KT 10SM OVC015 03/00 A3006 RMK AO2 T00261005
Loading
Personal Weather Stations






























Interactive Weather Map New forecast layout! Learn more

10-Day Weather Forecast

Advertisements
Track Severe Weather on mobile